Time;durP1;ratioP1;P1;durP2;ratioP2;P2;SDS_P1;SDS_P2;PMS_P1;PMS_P2;Temp;Humidity;BMP_temperature;BMP_pressure;BME280_temperature;BME280_humidity;BME280_pressure;Samples;Min_cycle;Max_cycle;Signal;HPM_P1;HPM_P2
2022/08/16 00:01:09;;;;;;;;;;;;;;;25.82;85.57;97275.38;5125835;28;19962;-60
2022/08/16 00:03:37;;;;;;;;;;;;;;;25.59;87.19;97278.28;5122561;28;20381;-60
2022/08/16 00:06:03;;;;;;;;;;;;;;;25.24;90.21;97280.63;5122404;28;19924;-60
2022/08/16 00:08:30;;;;;;;;;;;;;;;25.14;91.07;97275.81;5125448;28;19974;-60
2022/08/16 00:10:56;;;;;;;;;;;;;;;25.62;87.97;97282.22;5125968;28;19934;-60
2022/08/16 00:13:22;;;;;;;;;;;;;;;25.91;85.62;97269.56;5123922;28;19920;-61
2022/08/16 00:15:49;;;;;;;;;;;;;;;25.99;85.05;97279.44;5122377;28;19920;-60
2022/08/16 00:18:17;;;;;;;;;;;;;;;25.70;86.96;97281.13;5123251;28;19931;-60
2022/08/16 00:20:46;;;;;;;;;;;;;;;25.41;88.93;97290.94;5125954;28;19924;-61
2022/08/16 00:23:13;;;;;;;;;;;;;;;24.59;95.36;97283.69;5125168;28;20002;-60
2022/08/16 00:25:40;;;;;;;;;;;;;;;24.84;94.65;97286.00;5118096;28;19924;-61
2022/08/16 00:28:07;;;;;;;;;;;;;;;24.30;98.80;97280.91;5122150;28;19959;-60
2022/08/16 00:30:33;;;;;;;;;;;;;;;24.93;93.96;97281.81;5107611;28;19963;-60
2022/08/16 00:33:00;;;;;;;;;;;;;;;25.54;89.33;97278.63;5125686;28;19924;-59
2022/08/16 00:35:28;;;;;;;;;;;;;;;25.87;86.90;97283.25;5123167;28;19931;-60
2022/08/16 00:37:56;;;;;;;;;;;;;;;26.02;85.76;97284.94;5121791;28;19951;-60
2022/08/16 00:40:24;;;;;;;;;;;;;;;26.18;84.87;97295.66;5123899;28;19924;-60
2022/08/16 00:42:50;;;;;;;;;;;;;;;25.91;86.24;97286.00;5125525;28;20011;-61
2022/08/16 00:45:23;;;;;;;;;;;;;;;25.95;85.78;97286.81;5124555;28;19958;-61
2022/08/16 00:47:50;;;;;;;;;;;;;;;26.10;85.21;97296.72;5121980;28;19931;-61
2022/08/16 00:50:16;;;;;;;;;;;;;;;26.16;84.69;97292.50;5123178;28;19930;-60
2022/08/16 00:52:43;;;;;;;;;;;;;;;26.03;85.23;97294.69;5125807;28;19951;-61
2022/08/16 00:55:10;;;;;;;;;;;;;;;26.16;84.75;97295.22;5121078;28;19935;-61
2022/08/16 00:57:37;;;;;;;;;;;;;;;26.23;84.23;97298.03;5122235;28;19979;-61
2022/08/16 01:00:05;;;;;;;;;;;;;;;26.30;83.84;97298.84;5121873;28;20125;-60
2022/08/16 01:02:31;;;;;;;;;;;;;;;26.31;83.55;97296.91;5125118;28;19969;-60
2022/08/16 01:04:58;;;;;;;;;;;;;;;26.19;83.63;97298.00;5125368;28;19983;-60
2022/08/16 01:07:24;;;;;;;;;;;;;;;26.21;83.28;97308.56;5122985;28;19951;-60
2022/08/16 01:09:51;;;;;;;;;;;;;;;26.25;83.03;97306.63;5121200;28;19925;-60
2022/08/16 01:12:20;;;;;;;;;;;;;;;26.30;82.76;97303.56;5122769;28;19920;-60
2022/08/16 01:14:48;;;;;;;;;;;;;;;26.26;82.96;97294.53;5125264;28;19962;-61
2022/08/16 01:17:17;;;;;;;;;;;;;;;26.34;81.97;97301.63;5106138;28;19924;-61
2022/08/16 01:19:45;;;;;;;;;;;;;;;26.34;82.22;97298.88;5121391;28;19996;-60
2022/08/16 01:22:16;;;;;;;;;;;;;;;26.32;81.85;97305.91;5121682;28;19924;-60
2022/08/16 01:24:45;;;;;;;;;;;;;;;26.37;81.75;97311.03;5124343;28;19963;-60
2022/08/16 01:27:13;;;;;;;;;;;;;;;26.28;82.04;97311.34;5121301;28;19926;-61
2022/08/16 01:29:41;;;;;;;;;;;;;;;26.19;82.72;97317.16;5121240;28;19955;-61
2022/08/16 01:32:07;;;;;;;;;;;;;;;26.26;82.41;97327.38;5121308;28;19928;-61
2022/08/16 01:34:34;;;;;;;;;;;;;;;26.24;82.32;97319.53;5112769;28;19925;-62
2022/08/16 01:37:02;;;;;;;;;;;;;;;26.22;82.29;97312.88;5112432;28;19966;-60
2022/08/16 01:39:29;;;;;;;;;;;;;;;26.14;82.60;97316.69;5112626;28;19928;-60
2022/08/16 01:41:56;;;;;;;;;;;;;;;26.20;82.60;97312.47;5112536;28;19975;-60
2022/08/16 01:44:23;;;;;;;;;;;;;;;26.22;82.21;97315.59;5112878;28;19942;-61
2022/08/16 01:46:52;;;;;;;;;;;;;;;26.17;82.21;97315.97;5112845;28;19962;-62
2022/08/16 01:49:19;;;;;;;;;;;;;;;26.21;81.92;97316.78;5112936;28;19924;-61
2022/08/16 01:51:47;;;;;;;;;;;;;;;26.20;81.90;97312.47;5113065;28;19987;-61
2022/08/16 01:54:14;;;;;;;;;;;;;;;26.14;81.96;97316.69;5117004;28;20438;-60
2022/08/16 01:56:40;;;;;;;;;;;;;;;26.16;81.99;97320.66;5117212;28;19930;-59
2022/08/16 01:59:09;;;;;;;;;;;;;;;26.10;82.34;97327.59;5124249;28;19959;-61
2022/08/16 02:01:35;;;;;;;;;;;;;;;26.17;81.92;97311.28;5119942;28;20485;-59
2022/08/16 02:04:02;;;;;;;;;;;;;;;26.13;82.15;97315.91;5120885;28;20679;-61
2022/08/16 02:06:29;;;;;;;;;;;;;;;26.18;81.57;97312.84;5123893;28;19928;-59
2022/08/16 02:08:56;;;;;;;;;;;;;;;26.14;81.68;97317.47;5124272;28;19923;-60
2022/08/16 02:11:23;;;;;;;;;;;;;;;26.12;81.82;97314.31;5122809;28;19927;-61
2022/08/16 02:13:49;;;;;;;;;;;;;;;26.10;81.98;97307.66;5120586;28;19928;-60
2022/08/16 02:16:18;;;;;;;;;;;;;;;26.10;81.66;97318.59;5121707;28;19924;-60
2022/08/16 02:18:44;;;;;;;;;;;;;;;26.09;81.64;97314.31;5124047;28;19924;-60
2022/08/16 02:21:11;;;;;;;;;;;;;;;26.14;81.46;97316.69;5123054;28;20037;-59
2022/08/16 02:23:38;;;;;;;;;;;;;;;26.16;81.05;97311.66;5120030;28;19955;-61
2022/08/16 02:26:05;;;;;;;;;;;;;;;26.17;81.08;97307.75;5120585;28;19962;-59
2022/08/16 02:28:32;;;;;;;;;;;;;;;26.14;81.42;97311.22;5123706;28;19970;-59
2022/08/16 02:30:59;;;;;;;;;;;;;;;26.12;81.62;97302.63;5124020;28;19920;-60
2022/08/16 02:33:27;;;;;;;;;;;;;;;26.12;81.30;97302.63;5121510;28;19924;-60
2022/08/16 02:35:53;;;;;;;;;;;;;;;26.05;81.70;97308.03;5120221;28;19954;-60
2022/08/16 02:38:20;;;;;;;;;;;;;;;26.10;81.76;97302.19;5121893;28;19931;-59
2022/08/16 02:40:47;;;;;;;;;;;;;;;26.03;82.10;97297.44;5123701;28;19967;-60
2022/08/16 02:43:13;;;;;;;;;;;;;;;25.48;85.65;97287.50;5105066;28;19935;-60
2022/08/16 02:45:39;;;;;;;;;;;;;;;24.71;91.83;97285.41;5120355;28;20485;-60
2022/08/16 02:48:06;;;;;;;;;;;;;;;25.05;89.81;97297.19;5119851;28;20066;-60
2022/08/16 02:50:34;;;;;;;;;;;;;;;25.06;89.69;97279.63;5123306;28;19931;-60
2022/08/16 02:53:00;;;;;;;;;;;;;;;25.14;89.23;97281.28;5123545;28;19959;-60
2022/08/16 02:55:27;;;;;;;;;;;;;;;25.31;88.54;97274.47;5098693;28;20015;-60
2022/08/16 02:57:53;;;;;;;;;;;;;;;25.50;87.20;97283.25;5120162;28;19924;-60
2022/08/16 03:00:20;;;;;;;;;;;;;;;25.65;86.08;97285.00;5121158;28;19955;-60
2022/08/16 03:02:46;;;;;;;;;;;;;;;25.75;85.49;97283.50;5123143;28;19959;-60
2022/08/16 03:05:14;;;;;;;;;;;;;;;25.75;85.01;97284.28;5122431;28;19920;-60
2022/08/16 03:07:42;;;;;;;;;;;;;;;25.50;86.15;97282.50;5119655;28;19924;-60
2022/08/16 03:10:10;;;;;;;;;;;;;;;25.42;87.67;97287.06;5119445;28;19951;-59
2022/08/16 03:12:36;;;;;;;;;;;;;;;25.57;86.60;97288.81;5119479;28;19928;-60
2022/08/16 03:15:03;;;;;;;;;;;;;;;25.66;85.40;97292.03;5119343;28;19924;-60
2022/08/16 03:17:30;;;;;;;;;;;;;;;25.74;85.37;97292.91;5122190;28;19924;-59
2022/08/16 03:19:56;;;;;;;;;;;;;;;25.76;85.17;97288.63;5122711;28;19924;-60
2022/08/16 03:22:23;;;;;;;;;;;;;;;25.73;85.24;97297.56;5120700;28;19949;-60
2022/08/16 03:24:50;;;;;;;;;;;;;;;25.75;85.20;97287.03;5119049;28;19920;-59
2022/08/16 03:27:17;;;;;;;;;;;;;;;25.72;84.89;97289.72;5119173;28;19924;-60
2022/08/16 03:29:43;;;;;;;;;;;;;;;25.77;85.20;97281.19;5119028;28;19935;-59
2022/08/16 03:32:09;;;;;;;;;;;;;;;25.71;85.27;97280.75;5119135;28;19947;-61
2022/08/16 03:34:36;;;;;;;;;;;;;;;25.68;84.93;97288.94;5122531;28;19985;-60
2022/08/16 03:37:02;;;;;;;;;;;;;;;25.73;85.02;97288.56;5122320;28;20374;-59
2022/08/16 03:39:29;;;;;;;;;;;;;;;25.73;84.80;97286.63;5119818;28;20086;-59
2022/08/16 03:41:56;;;;;;;;;;;;;;;25.76;84.61;97280.41;5100830;28;19939;-61
2022/08/16 03:44:23;;;;;;;;;;;;;;;25.75;84.75;97275.31;5121043;28;20461;-60
2022/08/16 03:46:49;;;;;;;;;;;;;;;25.80;84.26;97296.06;5122437;28;19951;-60
2022/08/16 03:49:16;;;;;;;;;;;;;;;25.73;84.16;97294.84;5121538;28;19923;-60
2022/08/16 03:51:43;;;;;;;;;;;;;;;25.74;84.78;97301.09;5119025;28;19931;-60
2022/08/16 03:54:09;;;;;;;;;;;;;;;25.63;84.48;97292.78;5123151;28;19963;-60
2022/08/16 03:56:35;;;;;;;;;;;;;;;25.66;84.75;97304.91;5114194;28;19959;-60
2022/08/16 03:59:03;;;;;;;;;;;;;;;25.61;85.06;97306.06;5122411;28;19920;-60
2022/08/16 04:01:30;;;;;;;;;;;;;;;25.59;85.29;97311.09;5119268;28;19970;-60
2022/08/16 04:03:56;;;;;;;;;;;;;;;25.57;85.28;97310.69;5118854;28;19931;-60
2022/08/16 04:06:23;;;;;;;;;;;;;;;25.53;86.00;97318.06;5120761;28;20043;-60
2022/08/16 04:08:49;;;;;;;;;;;;;;;25.62;85.53;97313.09;5122376;28;19959;-60
2022/08/16 04:11:16;;;;;;;;;;;;;;;25.63;85.07;97320.13;5121296;28;19955;-60
2022/08/16 04:13:42;;;;;;;;;;;;;;;25.53;85.73;97318.06;5118751;28;19955;-60
2022/08/16 04:16:11;;;;;;;;;;;;;;;25.51;86.07;97325.06;5118580;28;19964;-61
2022/08/16 04:18:37;;;;;;;;;;;;;;;25.51;86.41;97325.06;5110172;28;20610;-61
2022/08/16 04:21:04;;;;;;;;;;;;;;;25.02;89.63;97317.06;5110050;28;19924;-60
2022/08/16 04:23:30;;;;;;;;;;;;;;;24.84;90.99;97311.38;5110226;28;19979;-61
2022/08/16 04:25:57;;;;;;;;;;;;;;;24.98;90.03;97319.72;5114309;28;19925;-60
2022/08/16 04:28:23;;;;;;;;;;;;;;;24.69;91.54;97331.41;5120511;28;19970;-60
2022/08/16 04:30:49;;;;;;;;;;;;;;;24.61;92.39;97335.97;5121928;28;19923;-60
2022/08/16 04:33:17;;;;;;;;;;;;;;;24.54;93.23;97332.38;5121140;28;19928;-60
2022/08/16 04:35:44;;;;;;;;;;;;;;;24.48;93.73;97336.56;5118370;28;19958;-60
2022/08/16 04:38:10;;;;;;;;;;;;;;;24.62;92.23;97337.56;5118478;28;19928;-60
2022/08/16 04:40:36;;;;;;;;;;;;;;;24.36;93.89;97339.47;5121903;28;19963;-60
2022/08/16 04:43:03;;;;;;;;;;;;;;;24.23;95.45;97344.38;5121821;28;19988;-60
2022/08/16 04:45:29;;;;;;;;;;;;;;;24.33;94.47;97351.91;5120554;28;19934;-60
2022/08/16 04:47:56;;;;;;;;;;;;;;;24.47;93.28;97345.91;5121958;28;19963;-61
2022/08/16 04:50:25;;;;;;;;;;;;;;;23.92;96.51;97353.53;5123839;28;19920;-61
2022/08/16 04:52:52;;;;;;;;;;;;;;;23.57;100.00;97350.16;5125468;28;19930;-61
2022/08/16 04:55:20;;;;;;;;;;;;;;;24.04;96.88;97356.09;5119876;28;19920;-60
2022/08/16 04:57:49;;;;;;;;;;;;;;;24.34;93.54;97342.59;5121930;28;19959;-61
2022/08/16 05:00:16;;;;;;;;;;;;;;;23.87;95.49;97361.22;5122721;28;19966;-61
2022/08/16 05:02:42;;;;;;;;;;;;;;;22.87;100.00;97368.56;5125150;28;20022;-61
2022/08/16 05:05:10;;;;;;;;;;;;;;;23.00;100.00;97368.06;5125160;28;19951;-60
2022/08/16 05:07:38;;;;;;;;;;;;;;;23.63;99.51;97360.44;5121678;28;20035;-60
2022/08/16 05:10:05;;;;;;;;;;;;;;;24.01;95.80;97375.13;5121657;28;20010;-59
2022/08/16 05:12:32;;;;;;;;;;;;;;;24.32;93.12;97363.22;5124700;28;19962;-60
2022/08/16 05:14:58;;;;;;;;;;;;;;;24.30;92.81;97374.47;5125121;28;19928;-60
2022/08/16 05:17:24;;;;;;;;;;;;;;;23.90;95.40;97374.13;5123000;28;19982;-60
2022/08/16 05:19:51;;;;;;;;;;;;;;;22.65;100.00;97374.63;5121758;28;19924;-60
2022/08/16 05:22:17;;;;;;;;;;;;;;;22.11;100.00;97364.41;5122725;28;19924;-59
2022/08/16 05:24:45;;;;;;;;;;;;;;;22.42;100.00;97352.72;5124614;28;20677;-59
2022/08/16 05:27:11;;;;;;;;;;;;;;;22.54;100.00;97361.56;5121124;28;19983;-60
2022/08/16 05:29:38;;;;;;;;;;;;;;;22.88;100.00;97376.34;5103375;28;19924;-60
2022/08/16 05:32:05;;;;;;;;;;;;;;;23.25;100.00;97368.59;5120989;28;19931;-59
2022/08/16 05:34:31;;;;;;;;;;;;;;;23.68;98.41;97367.50;5124001;28;19994;-59
2022/08/16 05:36:57;;;;;;;;;;;;;;;23.30;100.00;97381.94;5124214;28;19924;-59
2022/08/16 05:39:24;;;;;;;;;;;;;;;23.17;100.00;97382.41;5104157;28;19926;-60
2022/08/16 05:41:52;;;;;;;;;;;;;;;22.77;100.00;97383.50;5120572;28;19959;-59
2022/08/16 05:44:19;;;;;;;;;;;;;;;22.75;100.00;97382.25;5121836;28;19956;-60
2022/08/16 05:46:45;;;;;;;;;;;;;;;23.15;100.00;97380.03;5124153;28;19983;-60
2022/08/16 05:49:12;;;;;;;;;;;;;;;23.19;100.00;97383.63;5123779;28;19962;-61
2022/08/16 05:51:39;;;;;;;;;;;;;;;23.42;100.00;97375.56;5120543;28;19997;-60
2022/08/16 05:54:05;;;;;;;;;;;;;;;23.45;100.00;97380.31;5124073;28;19979;-61
2022/08/16 05:56:32;;;;;;;;;;;;;;;22.67;100.00;97384.06;5115249;28;20037;-60
2022/08/16 05:59:00;;;;;;;;;;;;;;;22.22;100.00;97375.56;5123682;28;20535;-60
2022/08/16 06:01:26;;;;;;;;;;;;;;;22.35;100.00;97380.53;5121278;28;19978;-61
2022/08/16 06:03:52;;;;;;;;;;;;;;;22.55;100.00;97378.69;5119933;28;19920;-60
2022/08/16 06:06:19;;;;;;;;;;;;;;;22.68;100.00;97384.84;5121147;28;19951;-60
2022/08/16 06:08:45;;;;;;;;;;;;;;;22.96;100.00;97380.03;5123375;28;19924;-60
2022/08/16 06:11:12;;;;;;;;;;;;;;;23.33;100.00;97377.69;5122995;28;19928;-60
2022/08/16 06:13:38;;;;;;;;;;;;;;;23.34;100.00;97376.53;5119809;28;19955;-60
2022/08/16 06:16:06;;;;;;;;;;;;;;;23.10;100.00;97378.41;5119677;28;19931;-60
2022/08/16 06:18:33;;;;;;;;;;;;;;;23.07;100.00;97394.66;5123152;28;19919;-59
2022/08/16 06:21:00;;;;;;;;;;;;;;;23.12;100.00;97397.09;5123203;28;20010;-61
2022/08/16 06:23:26;;;;;;;;;;;;;;;23.42;100.00;97392.72;5120793;28;19977;-59
2022/08/16 06:25:53;;;;;;;;;;;;;;;23.60;100.00;97391.13;5115520;28;19980;-61
2022/08/16 06:28:19;;;;;;;;;;;;;;;23.90;97.74;97401.41;5120975;28;19919;-59
2022/08/16 06:30:46;;;;;;;;;;;;;;;24.59;94.85;97392.09;5104894;28;19963;-61
2022/08/16 06:33:15;;;;;;;;;;;;;;;25.40;87.35;97398.75;5122493;28;19963;-60
2022/08/16 06:35:42;;;;;;;;;;;;;;;25.24;88.02;97392.69;5119482;28;19924;-60
2022/08/16 06:38:08;;;;;;;;;;;;;;;25.78;85.18;97390.22;5119601;28;19937;-60
2022/08/16 06:40:34;;;;;;;;;;;;;;;26.01;82.86;97392.81;5123004;28;19967;-63
2022/08/16 06:43:01;;;;;;;;;;;;;;;25.64;82.88;97401.00;5122810;28;19967;-60
2022/08/16 06:45:27;;;;;;;;;;;;;;;25.04;85.54;97396.69;5120516;28;19966;-60
2022/08/16 06:47:54;;;;;;;;;;;;;;;25.16;88.16;97396.47;5119425;28;19962;-61
2022/08/16 06:50:22;;;;;;;;;;;;;;;25.16;88.42;97397.25;5121228;28;19960;-60
2022/08/16 06:52:48;;;;;;;;;;;;;;;26.06;83.12;97403.41;5122935;28;19958;-59
2022/08/16 06:55:15;;;;;;;;;;;;;;;26.66;77.07;97403.97;5130825;27;19955;-60
2022/08/16 06:57:42;;;;;;;;;;;;;;;26.83;76.83;97407.25;5119282;28;19952;-60
2022/08/16 07:00:12;;;;;;;;;;;;;;;26.79;74.29;97398.97;5119162;28;19959;-59
2022/08/16 07:02:38;;;;;;;;;;;;;;;26.13;77.69;97402.69;5118972;28;19932;-59
2022/08/16 07:05:06;;;;;;;;;;;;;;;25.40;81.31;97401.47;5119391;28;20685;-60
2022/08/16 07:07:33;;;;;;;;;;;;;;;25.81;83.17;97391.41;5121793;28;19934;-61
2022/08/16 07:10:00;;;;;;;;;;;;;;;26.71;77.31;97400.06;5122319;28;19928;-60
2022/08/16 07:12:27;;;;;;;;;;;;;;;26.94;75.51;97386.16;5119671;28;19959;-60
2022/08/16 07:14:53;;;;;;;;;;;;;;;27.23;74.37;97390.66;5118657;28;19981;-60
2022/08/16 07:17:20;;;;;;;;;;;;;;;26.08;75.75;97394.81;5120179;28;19931;-64
2022/08/16 07:19:47;;;;;;;;;;;;;;;24.71;85.75;97389.16;5122292;28;19926;-59
2022/08/16 07:22:13;;;;;;;;;;;;;;;23.92;92.96;97391.72;5121752;28;19970;-59
2022/08/16 07:24:43;;;;;;;;;;;;;;;23.90;95.17;97388.56;5118511;28;19931;-59
2022/08/16 07:27:10;;;;;;;;;;;;;;;24.65;92.62;97391.44;5118609;28;19919;-61
2022/08/16 07:29:37;;;;;;;;;;;;;;;25.91;84.02;97387.22;5118728;28;19936;-60
2022/08/16 07:32:03;;;;;;;;;;;;;;;26.57;78.56;97384.34;5118627;28;19989;-60
2022/08/16 07:34:30;;;;;;;;;;;;;;;26.86;76.22;97382.63;5121484;28;19991;-59
2022/08/16 07:36:57;;;;;;;;;;;;;;;27.06;74.86;97383.91;5121905;28;19924;-61
2022/08/16 07:39:23;;;;;;;;;;;;;;;27.29;73.40;97386.38;5120162;28;20031;-60
2022/08/16 07:41:51;;;;;;;;;;;;;;;27.30;72.58;97390.66;5118379;28;19928;-61
2022/08/16 07:44:18;;;;;;;;;;;;;;;27.04;72.74;97390.94;5119620;28;19935;-60
2022/08/16 07:46:44;;;;;;;;;;;;;;;26.44;76.81;97387.72;5121925;28;19962;-60
2022/08/16 07:49:10;;;;;;;;;;;;;;;26.53;77.47;97390.94;5121802;28;19965;-60
2022/08/16 07:51:37;;;;;;;;;;;;;;;26.80;76.57;97387.66;5118498;28;19959;-59
2022/08/16 07:54:04;;;;;;;;;;;;;;;27.14;74.46;97388.22;5125459;28;19920;-61
2022/08/16 07:56:30;;;;;;;;;;;;;;;27.19;73.16;97387.09;5122600;28;19963;-60
2022/08/16 07:58:58;;;;;;;;;;;;;;;27.22;72.46;97391.81;5121918;28;19959;-60
2022/08/16 08:01:25;;;;;;;;;;;;;;;26.74;71.41;97396.56;5119764;28;19955;-60
2022/08/16 08:03:51;;;;;;;;;;;;;;;25.55;79.04;97395.03;5118303;28;19955;-60
2022/08/16 08:06:18;;;;;;;;;;;;;;;25.63;81.94;97396.69;5119316;28;19920;-60
2022/08/16 08:08:44;;;;;;;;;;;;;;;25.66;82.28;97401.41;5121827;28;19930;-60
2022/08/16 08:11:11;;;;;;;;;;;;;;;25.61;82.62;97399.03;5121503;28;20004;-60
2022/08/16 08:13:38;;;;;;;;;;;;;;;25.76;81.76;97400.75;5118238;28;19950;-60
2022/08/16 08:16:06;;;;;;;;;;;;;;;25.28;84.44;97396.25;5118210;28;19964;-59
2022/08/16 08:18:32;;;;;;;;;;;;;;;24.80;87.22;97403.34;5121462;28;19963;-60
2022/08/16 08:20:58;;;;;;;;;;;;;;;24.79;87.49;97406.47;5124027;28;19927;-60
2022/08/16 08:23:25;;;;;;;;;;;;;;;25.59;83.11;97400.56;5123497;28;19930;-60
2022/08/16 08:25:51;;;;;;;;;;;;;;;25.96;79.90;97408.78;5130949;27;19925;-59
2022/08/16 08:28:18;;;;;;;;;;;;;;;25.74;81.30;97408.56;5123174;28;19920;-59
2022/08/16 08:30:44;;;;;;;;;;;;;;;25.44;83.19;97401.53;5125437;28;19970;-61
2022/08/16 08:33:12;;;;;;;;;;;;;;;25.80;82.29;97394.53;5125181;28;19991;-60
2022/08/16 08:35:39;;;;;;;;;;;;;;;26.83;75.80;97396.28;5121671;28;19935;-59
2022/08/16 08:38:07;;;;;;;;;;;;;;;27.11;73.40;97401.94;5121575;28;19924;-60
2022/08/16 08:40:34;;;;;;;;;;;;;;;26.09;76.76;97404.63;5125028;28;19920;-61
2022/08/16 08:43:01;;;;;;;;;;;;;;;25.61;81.20;97401.75;5125258;28;19928;-61
2022/08/16 08:45:27;;;;;;;;;;;;;;;25.72;82.01;97408.13;5122793;28;19991;-59
2022/08/16 08:47:56;;;;;;;;;;;;;;;25.77;81.99;97394.13;5121568;28;19955;-60
2022/08/16 08:50:24;;;;;;;;;;;;;;;26.36;79.50;97408.00;5123296;28;20475;-60
2022/08/16 08:52:52;;;;;;;;;;;;;;;26.25;78.16;97399.69;5125323;28;19985;-59
2022/08/16 08:55:21;;;;;;;;;;;;;;;26.02;80.22;97399.06;5132726;27;19931;-61
2022/08/16 08:57:48;;;;;;;;;;;;;;;26.57;75.71;97400.75;5121535;28;19942;-60
2022/08/16 09:00:17;;;;;;;;;;;;;;;25.57;80.76;97400.13;5122055;28;19925;-60
2022/08/16 09:02:44;;;;;;;;;;;;;;;25.85;81.65;97399.66;5124774;28;19931;-60
2022/08/16 09:05:12;;;;;;;;;;;;;;;26.32;77.33;97391.56;5124583;28;19924;-60
2022/08/16 09:07:40;;;;;;;;;;;;;;;25.76;78.71;97400.75;5121372;28;19931;-60
2022/08/16 09:10:07;;;;;;;;;;;;;;;25.70;80.23;97398.72;5121298;28;19966;-63
2022/08/16 09:12:34;;;;;;;;;;;;;;;25.95;80.69;97399.78;5124359;28;19920;-60
2022/08/16 09:15:00;;;;;;;;;;;;;;;26.95;75.87;97393.22;5124388;28;19963;-60
2022/08/16 09:17:27;;;;;;;;;;;;;;;26.83;75.56;97394.34;5122202;28;19924;-60
2022/08/16 09:19:54;;;;;;;;;;;;;;;26.26;75.32;97393.06;5120862;28;19950;-60
2022/08/16 09:22:21;;;;;;;;;;;;;;;26.39;75.63;97394.38;5122049;28;19931;-60
2022/08/16 09:24:49;;;;;;;;;;;;;;;27.54;71.32;97384.56;5133208;27;19987;-60
2022/08/16 09:27:15;;;;;;;;;;;;;;;27.71;68.75;97389.28;5123452;28;19931;-60
2022/08/16 09:29:42;;;;;;;;;;;;;;;27.77;68.71;97389.69;5120726;28;19947;-59
2022/08/16 09:32:09;;;;;;;;;;;;;;;27.69;68.59;97391.66;5120412;28;19924;-60
2022/08/16 09:34:35;;;;;;;;;;;;;;;27.57;65.80;97396.69;5124033;28;19923;-60
2022/08/16 09:37:02;;;;;;;;;;;;;;;27.53;68.17;97391.19;5124162;28;19987;-61
2022/08/16 09:39:28;;;;;;;;;;;;;;;27.71;65.89;97394.78;5121893;28;19923;-60
2022/08/16 09:41:58;;;;;;;;;;;;;;;27.53;66.73;97395.91;5120534;28;19961;-60
2022/08/16 09:44:25;;;;;;;;;;;;;;;27.79;68.05;97387.38;5122214;28;19946;-59
2022/08/16 09:46:52;;;;;;;;;;;;;;;27.94;66.19;97388.97;5123977;28;19924;-60
2022/08/16 09:49:19;;;;;;;;;;;;;;;28.05;65.93;97389.78;5122816;28;19934;-60
2022/08/16 09:51:46;;;;;;;;;;;;;;;27.96;64.30;97378.38;5120457;28;19990;-61
2022/08/16 09:54:13;;;;;;;;;;;;;;;28.69;63.33;97387.13;5129639;27;19923;-60
2022/08/16 09:56:41;;;;;;;;;;;;;;;28.99;62.21;97386.66;5123870;28;19923;-61
2022/08/16 09:59:10;;;;;;;;;;;;;;;29.10;61.51;97376.41;5123869;28;19924;-60
2022/08/16 10:01:37;;;;;;;;;;;;;;;28.06;61.80;97388.63;5111792;28;19924;-61
2022/08/16 10:04:04;;;;;;;;;;;;;;;27.66;63.85;97386.16;5111692;28;19924;-59
2022/08/16 10:06:31;;;;;;;;;;;;;;;28.23;63.22;97384.31;5111737;28;19932;-61
2022/08/16 10:08:57;;;;;;;;;;;;;;;27.99;63.40;97380.34;5111813;28;19963;-60
2022/08/16 10:14:08;;;;;;;;;;;;;;;28.83;59.33;97374.13;5111816;28;19937;-60
2022/08/16 10:16:35;;;;;;;;;;;;;;;28.44;60.74;97375.31;5111780;28;19924;-59
2022/08/16 10:19:02;;;;;;;;;;;;;;;28.15;60.61;97369.81;5111550;28;20015;-60
2022/08/16 10:21:29;;;;;;;;;;;;;;;28.41;60.98;97376.88;5111574;28;19920;-60
2022/08/16 10:23:55;;;;;;;;;;;;;;;28.70;60.11;97366.69;5116129;27;19938;-60
2022/08/16 10:26:23;;;;;;;;;;;;;;;28.89;57.50;97350.56;5125181;27;19974;-60
2022/08/16 10:28:50;;;;;;;;;;;;;;;28.63;56.28;97356.44;5123378;28;19931;-60
2022/08/16 10:31:18;;;;;;;;;;;;;;;27.91;57.95;97361.50;5122312;28;20017;-60
2022/08/16 10:33:44;;;;;;;;;;;;;;;27.62;59.45;97350.47;5119874;28;19931;-60
2022/08/16 10:36:12;;;;;;;;;;;;;;;27.88;59.90;97352.88;5120206;28;19935;-59
2022/08/16 10:38:39;;;;;;;;;;;;;;;28.49;59.60;97352.94;5123576;28;19920;-59
2022/08/16 10:41:06;;;;;;;;;;;;;;;28.56;58.85;97353.72;5123698;28;19934;-60
2022/08/16 10:43:33;;;;;;;;;;;;;;;28.80;56.93;97358.44;5119505;28;19991;-60
2022/08/16 10:45:59;;;;;;;;;;;;;;;28.99;57.40;97364.69;5119940;28;19931;-60
2022/08/16 10:48:27;;;;;;;;;;;;;;;28.84;54.97;97358.44;5121906;28;19924;-60
2022/08/16 10:50:56;;;;;;;;;;;;;;;28.38;54.92;97359.22;5122871;28;19927;-60
2022/08/16 10:53:23;;;;;;;;;;;;;;;27.87;56.11;97365.03;5102938;28;19926;-60
2022/08/16 10:55:49;;;;;;;;;;;;;;;27.38;57.46;97367.59;5128686;27;19951;-60
2022/08/16 10:58:15;;;;;;;;;;;;;;;27.53;58.13;97358.28;5120120;28;19991;-59
2022/08/16 11:00:42;;;;;;;;;;;;;;;27.42;57.51;97353.91;5123084;28;19951;-59
2022/08/16 11:03:09;;;;;;;;;;;;;;;27.18;58.61;97347.13;5104973;28;19926;-59
2022/08/16 11:05:39;;;;;;;;;;;;;;;27.60;58.42;97352.84;5111054;28;20017;-61
2022/08/16 11:08:06;;;;;;;;;;;;;;;28.43;57.26;97352.56;5110919;28;20073;-60
2022/08/16 11:10:33;;;;;;;;;;;;;;;28.42;55.49;97348.25;5110861;28;19983;-60
2022/08/16 11:13:00;;;;;;;;;;;;;;;28.09;56.11;97352.16;5110760;28;19950;-60
2022/08/16 11:15:27;;;;;;;;;;;;;;;27.76;56.47;97345.00;5110605;28;19952;-61
2022/08/16 11:17:54;;;;;;;;;;;;;;;27.57;57.16;97336.34;5110461;28;20544;-60
2022/08/16 11:20:20;;;;;;;;;;;;;;;27.51;57.82;97348.88;5110481;28;19959;-61
2022/08/16 11:22:49;;;;;;;;;;;;;;;27.34;57.63;97345.66;5110503;28;19927;-59
2022/08/16 11:25:16;;;;;;;;;;;;;;;27.36;57.39;97334.28;5127888;27;19969;-61
2022/08/16 11:27:42;;;;;;;;;;;;;;;27.55;56.72;97339.47;5118694;28;19927;-61
2022/08/16 11:30:11;;;;;;;;;;;;;;;27.47;56.51;97334.34;5118887;28;19988;-60
2022/08/16 11:32:37;;;;;;;;;;;;;;;27.72;55.96;97333.25;5118876;28;19920;-60
2022/08/16 11:35:05;;;;;;;;;;;;;;;27.95;57.09;97341.13;5118678;28;19920;-63
2022/08/16 11:37:33;;;;;;;;;;;;;;;28.06;55.80;97341.19;5121441;28;19931;-62
2022/08/16 11:40:01;;;;;;;;;;;;;;;27.89;55.81;97337.97;5122100;28;19924;-62
2022/08/16 11:42:27;;;;;;;;;;;;;;;28.02;55.06;97332.91;5119804;28;19959;-62
2022/08/16 11:44:53;;;;;;;;;;;;;;;28.15;54.68;97333.34;5118465;28;20699;-62
2022/08/16 11:47:20;;;;;;;;;;;;;;;28.03;53.75;97339.19;5119833;28;19967;-61
2022/08/16 11:49:46;;;;;;;;;;;;;;;28.20;53.48;97327.44;5104150;28;19950;-62
2022/08/16 11:52:12;;;;;;;;;;;;;;;28.32;53.17;97327.84;5121708;28;19943;-62
2022/08/16 11:54:40;;;;;;;;;;;;;;;28.28;51.34;97334.53;5129165;27;19926;-62
2022/08/16 11:57:08;;;;;;;;;;;;;;;28.47;51.86;97316.84;5126288;28;19945;-61
2022/08/16 11:59:35;;;;;;;;;;;;;;;28.71;51.79;97321.56;5122922;28;19974;-62
2022/08/16 12:02:01;;;;;;;;;;;;;;;28.94;49.20;97321.88;5122490;28;20332;-62
2022/08/16 12:04:28;;;;;;;;;;;;;;;28.78;50.15;97318.78;5125054;28;19928;-62
2022/08/16 12:06:54;;;;;;;;;;;;;;;28.85;50.55;97319.53;5126035;28;19953;-62
2022/08/16 12:09:20;;;;;;;;;;;;;;;28.98;50.09;97319.91;5124637;28;20022;-62
2022/08/16 12:11:47;;;;;;;;;;;;;;;28.84;49.23;97320.72;5122424;28;19959;-62
2022/08/16 12:14:14;;;;;;;;;;;;;;;28.74;49.72;97316.06;5122577;28;19927;-62
2022/08/16 12:16:41;;;;;;;;;;;;;;;28.78;50.71;97319.56;5125727;28;20022;-63
2022/08/16 12:19:07;;;;;;;;;;;;;;;28.89;50.62;97311.28;5125754;28;19935;-62
2022/08/16 12:21:34;;;;;;;;;;;;;;;28.89;49.76;97311.28;5122377;28;20444;-62
2022/08/16 12:24:01;;;;;;;;;;;;;;;28.82;49.72;97317.59;5128381;27;19924;-62
2022/08/16 12:26:27;;;;;;;;;;;;;;;28.79;49.19;97312.09;5126790;27;19958;-61
2022/08/16 12:28:54;;;;;;;;;;;;;;;28.94;50.92;97314.41;5125485;28;19995;-61
2022/08/16 12:31:22;;;;;;;;;;;;;;;29.13;49.77;97315.13;5123969;28;19924;-62
2022/08/16 12:33:48;;;;;;;;;;;;;;;29.36;49.12;97310.75;5121958;28;19920;-62
2022/08/16 12:36:16;;;;;;;;;;;;;;;29.51;48.93;97319.72;5122373;28;19924;-62
2022/08/16 12:38:42;;;;;;;;;;;;;;;29.72;47.45;97303.06;5125268;28;20483;-62
2022/08/16 12:41:09;;;;;;;;;;;;;;;29.33;48.55;97308.03;5125251;28;19920;-62
2022/08/16 12:43:35;;;;;;;;;;;;;;;29.30;48.26;97308.81;5121716;28;19924;-61
2022/08/16 12:46:02;;;;;;;;;;;;;;;29.48;47.07;97309.50;5121538;28;19924;-62